Time;durP1;ratioP1;P1;durP2;ratioP2;P2;SDS_P1;SDS_P2;PMS_P1;PMS_P2;Temp;Humidity;BMP_temperature;BMP_pressure;BME280_temperature;BME280_humidity;BME280_pressure;Samples;Min_cycle;Max_cycle;Signal;HPM_P1;HPM_P2
2023/03/15 00:01:55;;;;;;;14.93;7.38;;;;;;;;;;5086654;28;20035;-73
2023/03/15 00:04:20;;;;;;;13.67;6.93;;;;;;;;;;5084544;28;20033;-73
2023/03/15 00:06:46;;;;;;;12.60;6.47;;;;;;;;;;5084269;28;20276;-72
2023/03/15 00:09:11;;;;;;;10.65;6.20;;;;;;;;;;5079754;28;20341;-73
2023/03/15 00:11:36;;;;;;;15.43;6.80;;;;;;;;;;5086754;28;20077;-73
2023/03/15 00:14:02;;;;;;;15.43;7.55;;;;;;;;;;5081483;28;20020;-73
2023/03/15 00:16:27;;;;;;;12.90;7.00;;;;;;;;;;5084916;28;20036;-73
2023/03/15 00:18:53;;;;;;;16.05;7.93;;;;;;;;;;5084373;28;20044;-73
2023/03/15 00:21:18;;;;;;;15.85;8.52;;;;;;;;;;5081767;28;20041;-73
2023/03/15 00:23:44;;;;;;;14.23;7.88;;;;;;;;;;5087141;28;20028;-72
2023/03/15 00:26:09;;;;;;;18.55;8.60;;;;;;;;;;5085921;28;20028;-73
2023/03/15 00:28:34;;;;;;;15.82;8.70;;;;;;;;;;5083137;28;20039;-73
2023/03/15 00:31:03;;;;;;;16.90;8.83;;;;;;;;;;5082795;28;20135;-73
2023/03/15 00:33:33;;;;;;;14.98;7.60;;;;;;;;;;5082111;28;20034;-73
2023/03/15 00:36:01;;;;;;;11.57;7.07;;;;;;;;;;5083377;28;20047;-73
2023/03/15 00:38:26;;;;;;;13.15;7.07;;;;;;;;;;5084650;28;20577;-73
2023/03/15 00:40:51;;;;;;;15.83;7.33;;;;;;;;;;5086819;28;20038;-73
2023/03/15 00:43:16;;;;;;;13.37;6.10;;;;;;;;;;5087507;28;20017;-73
2023/03/15 00:45:44;;;;;;;12.60;6.63;;;;;;;;;;5083992;28;20542;-72
2023/03/15 00:48:09;;;;;;;10.75;6.75;;;;;;;;;;5085831;28;20162;-72
2023/03/15 00:50:34;;;;;;;12.80;6.40;;;;;;;;;;5087844;28;20107;-72
2023/03/15 00:52:59;;;;;;;12.47;6.30;;;;;;;;;;5084854;28;20028;-73
2023/03/15 00:55:25;;;;;;;11.03;6.67;;;;;;;;;;5087927;28;20024;-72
2023/03/15 00:57:51;;;;;;;11.35;6.18;;;;;;;;;;5086754;28;20868;-72
2023/03/15 01:00:23;;;;;;;12.25;5.93;;;;;;;;;;5080244;28;20111;-71
2023/03/15 01:02:48;;;;;;;13.45;6.10;;;;;;;;;;5084698;28;20024;-72
2023/03/15 01:05:14;;;;;;;10.90;5.82;;;;;;;;;;5086425;28;20035;-71
2023/03/15 01:07:39;;;;;;;10.70;5.97;;;;;;;;;;5082402;28;20028;-72
2023/03/15 01:10:05;;;;;;;10.77;6.30;;;;;;;;;;5084587;28;20553;-72
2023/03/15 01:12:31;;;;;;;12.20;5.78;;;;;;;;;;5086943;28;20028;-72
2023/03/15 01:14:56;;;;;;;11.60;5.47;;;;;;;;;;5076581;28;20173;-71
2023/03/15 01:17:22;;;;;;;11.15;6.32;;;;;;;;;;5084175;28;20510;-71
2023/03/15 01:19:47;;;;;;;12.23;7.17;;;;;;;;;;5082897;28;20538;-72
2023/03/15 01:22:12;;;;;;;11.73;7.10;;;;;;;;;;5076917;28;20296;-72
2023/03/15 01:24:38;;;;;;;16.67;6.73;;;;;;;;;;5081133;28;20031;-72
2023/03/15 01:27:03;;;;;;;12.60;5.93;;;;;;;;;;5079260;28;20912;-73
2023/03/15 01:29:28;;;;;;;10.00;6.43;;;;;;;;;;5084524;28;20033;-72
2023/03/15 01:31:53;;;;;;;14.13;6.63;;;;;;;;;;5098266;28;20357;-72
2023/03/15 01:34:20;;;;;;;10.27;6.33;;;;;;;;;;5078869;28;20040;-72
2023/03/15 01:36:48;;;;;;;13.85;6.97;;;;;;;;;;5079928;28;20853;-72
2023/03/15 01:39:13;;;;;;;16.02;7.47;;;;;;;;;;5080692;28;20035;-72
2023/03/15 01:41:38;;;;;;;11.43;6.10;;;;;;;;;;5082234;28;20394;-71
2023/03/15 01:44:04;;;;;;;11.37;6.83;;;;;;;;;;5081289;28;20483;-72
2023/03/15 01:46:33;;;;;;;12.13;7.00;;;;;;;;;;5085699;28;20283;-72
2023/03/15 01:49:04;;;;;;;15.05;7.82;;;;;;;;;;5084245;28;20690;-72
2023/03/15 01:51:33;;;;;;;16.45;7.78;;;;;;;;;;5075344;28;20130;-72
2023/03/15 01:54:01;;;;;;;14.63;7.20;;;;;;;;;;5083709;28;20027;-72
2023/03/15 01:56:28;;;;;;;11.93;7.13;;;;;;;;;;5082913;28;20031;-72
2023/03/15 01:58:55;;;;;;;20.00;8.77;;;;;;;8.41;nan;99165.13;5079580;28;20032;-72
2023/03/15 02:01:21;;;;;;;16.30;8.88;;;;;;;;;;5078002;28;20061;-72
2023/03/15 02:03:48;;;;;;;13.85;7.18;;;;;;;;;;5081437;28;20025;-72
2023/03/15 02:06:16;;;;;;;16.25;6.97;;;;;;;;;;5080582;28;20040;-72
2023/03/15 02:08:44;;;;;;;19.73;8.73;;;;;;;;;;5081793;28;20105;-72
2023/03/15 02:11:10;;;;;;;16.77;7.85;;;;;;;;;;5085445;28;20028;-72
2023/03/15 02:13:35;;;;;;;14.35;7.53;;;;;;;;;;5082419;28;20028;-72
2023/03/15 02:16:05;;;;;;;11.40;6.85;;;;;;;;;;5083619;28;20473;-71
2023/03/15 02:18:31;;;;;;;19.23;8.25;;;;;;;;;;5082833;28;20056;-71
2023/03/15 02:21:15;;;;;;;14.90;8.30;;;;;;;;;;5081184;28;20496;-71
2023/03/15 02:23:41;;;;;;;15.48;8.02;;;;;;;;;;5074877;28;20051;-71
2023/03/15 02:26:09;;;;;;;18.70;7.90;;;;;;;;;;5074783;28;20105;-71
2023/03/15 02:28:35;;;;;;;14.15;8.10;;;;;;;;;;5078790;28;20611;-71
2023/03/15 02:31:00;;;;;;;24.38;10.63;;;;;;;;;;5079926;28;20024;-70
2023/03/15 02:33:31;;;;;;;23.85;12.10;;;;;;;;;;5083102;28;20123;-70
2023/03/15 02:36:05;;;;;;;28.75;13.48;;;;;;;;;;5083020;28;20069;-70
2023/03/15 02:38:31;;;;;;;22.55;12.02;;;;;;;;;;5085082;28;20046;-70
2023/03/15 02:40:56;;;;;;;21.57;11.23;;;;;;;;;;5083941;28;20020;-71
2023/03/15 02:43:23;;;;;;;27.98;12.32;;;;;;;;;;5081787;28;20118;-71
2023/03/15 02:45:48;;;;;;;28.85;13.02;;;;;;;;;;5084937;28;20070;-71
2023/03/15 02:48:14;;;;;;;22.70;11.75;;;;;;;;;;5080692;28;20133;-71
2023/03/15 02:50:40;;;;;;;20.67;10.80;;;;;;;;;;5083277;28;20028;-71
2023/03/15 02:53:05;;;;;;;18.43;10.17;;;;;;;7.83;nan;99146.91;5083829;28;20393;-71
2023/03/15 02:55:33;;;;;;;18.83;10.38;;;;;;;;;;5080854;28;20351;-71
2023/03/15 02:57:59;;;;;;;16.80;9.60;;;;;;;;;;5081307;28;20024;-71
2023/03/15 03:00:25;;;;;;;20.05;9.02;;;;;;;;;;5082913;28;20035;-71
2023/03/15 03:02:50;;;;;;;16.38;9.10;;;;;;;;;;5081141;28;20028;-71
2023/03/15 03:05:16;;;;;;;16.30;8.40;;;;;;;;;;5084385;28;20485;-71
2023/03/15 03:07:44;;;;;;;17.17;9.20;;;;;;;;;;5080756;28;20181;-71
2023/03/15 03:10:11;;;;;;;14.15;9.35;;;;;;;;;;5078071;28;20580;-71
2023/03/15 03:12:36;;;;;;;16.67;8.77;;;;;;;;;;5076882;28;20024;-71
2023/03/15 03:15:03;;;;;;;14.20;8.20;;;;;;;;;;5078091;28;20039;-71
2023/03/15 03:17:28;;;;;;;15.00;8.73;;;;;;;;;;5079618;28;20288;-71
2023/03/15 03:19:53;;;;;;;14.32;8.55;;;;;;;;;;5079043;28;20480;-72
2023/03/15 03:22:19;;;;;;;16.77;8.20;;;;;;;;;;5083389;28;20032;-72
2023/03/15 03:24:44;;;;;;;13.75;8.10;;;;;;;;;;5077751;28;20040;-72
2023/03/15 03:27:13;;;;;;;17.80;8.15;;;;;;;;;;5079332;28;20113;-72
2023/03/15 03:29:39;;;;;;;19.95;8.55;;;;;;;;;;5079179;28;20016;-72
2023/03/15 03:32:05;;;;;;;18.77;9.38;;;;;;;;;;5081794;28;20092;-72
2023/03/15 03:34:30;;;;;;;17.98;9.05;;;;;;;;;;5080287;28;20024;-71
2023/03/15 03:36:55;;;;;;;22.30;9.80;;;;;;;;;;5077124;28;20069;-71
2023/03/15 03:39:21;;;;;;;14.83;8.80;;;;;;;;;;5083111;28;20264;-72
2023/03/15 03:41:46;;;;;;;23.00;9.13;;;;;;;;;;5082568;28;20398;-72
2023/03/15 03:44:11;;;;;;;21.48;8.68;;;;;;;;;;5083582;28;20280;-72
2023/03/15 03:46:36;;;;;;;18.47;8.67;;;;;;;;;;5084139;28;20027;-71
2023/03/15 03:49:02;;;;;;;18.80;8.90;;;;;;;;;;5087688;28;20673;-72
2023/03/15 03:51:27;;;;;;;16.25;9.15;;;;;;;;;;5082926;28;20042;-73
2023/03/15 03:53:52;;;;;;;18.73;8.48;;;;;;;;;;5079281;28;20024;-73
2023/03/15 03:56:18;;;;;;;18.40;9.53;;;;;;;;;;5080668;28;20042;-73
2023/03/15 03:58:43;;;;;;;15.55;8.50;;;;;;;;;;5078452;28;20666;-72
2023/03/15 04:01:08;;;;;;;20.37;8.73;;;;;;;;;;5084146;28;20077;-72
2023/03/15 04:03:33;;;;;;;17.73;9.00;;;;;;;;;;5081035;28;20285;-72
2023/03/15 04:05:59;;;;;;;15.77;8.47;;;;;;;;;;5079474;28;20341;-72
2023/03/15 04:08:25;;;;;;;15.15;8.48;;;;;;;;;;5080176;28;20043;-72
2023/03/15 04:10:54;;;;;;;15.65;8.38;;;;;;;;;;5083105;28;20047;-73
2023/03/15 04:13:19;;;;;;;;;;;;;;;;;;5081981;28;20081;-71
2023/03/15 04:15:46;;;;;;;14.82;7.82;;;;;;;;;;5085246;28;19920;-72
2023/03/15 04:18:11;;;;;;;15.75;8.65;;;;;;;;;;5082234;28;20050;-71
2023/03/15 04:20:36;;;;;;;14.43;7.33;;;;;;;;;;5079165;28;20023;-72
2023/03/15 04:23:02;;;;;;;15.97;8.13;;;;;;;;;;5082023;28;20286;-72
2023/03/15 04:25:27;;;;;;;13.80;7.90;;;;;;;;;;5083378;28;20275;-72
2023/03/15 04:27:58;;;;;;;14.83;7.77;;;;;;;;;;5079449;28;20246;-72
2023/03/15 04:30:27;;;;;;;15.05;7.93;;;;;;;;;;5083692;28;20680;-72
2023/03/15 04:32:59;;;;;;;28.70;9.40;;;;;;;;;;5079162;28;20028;-72
2023/03/15 04:35:28;;;;;;;18.65;9.85;;;;;;;;;;5077960;28;20032;-72
2023/03/15 04:37:53;;;;;;;20.92;11.10;;;;;;;;;;5094305;28;20797;-72
2023/03/15 04:40:19;;;;;;;42.22;18.48;;;;;;;;;;5083642;28;20155;-71
2023/03/15 04:42:44;;;;;;;44.15;18.70;;;;;;;;;;5077057;28;20488;-72
2023/03/15 04:45:10;;;;;;;23.88;12.07;;;;;;;;;;5080969;28;20027;-71
2023/03/15 04:47:35;;;;;;;21.80;10.07;;;;;;;;;;5084176;28;20020;-70
2023/03/15 04:50:00;;;;;;;20.40;10.15;;;;;;;;;;5084517;28;20365;-71
2023/03/15 04:52:26;;;;;;;16.77;8.97;;;;;;;;;;5082492;28;20020;-72
2023/03/15 04:54:51;;;;;;;25.20;11.60;;;;;;;;;;5085226;28;20347;-71
2023/03/15 04:57:16;;;;;;;28.20;13.47;;;;;;;;;;5083371;28;20502;-72
2023/03/15 04:59:41;;;;;;;25.57;12.53;;;;;;;;;;5083987;28;20761;-70
2023/03/15 05:02:07;;;;;;;22.13;10.57;;;;;;;;;;5078693;28;20028;-72
2023/03/15 05:04:32;;;;;;;20.37;9.70;;;;;;;;;;5082218;28;20035;-72
2023/03/15 05:06:57;;;;;;;16.37;9.10;;;;;;;;;;5080411;28;20324;-72
2023/03/15 05:09:22;;;;;;;17.93;10.27;;;;;;;;;;5078893;28;20281;-72
2023/03/15 05:11:48;;;;;;;17.33;9.67;;;;;;;;;;5082699;28;20336;-69
2023/03/15 05:14:13;;;;;;;18.03;9.03;;;;;;;;;;5083513;28;20063;-69
2023/03/15 05:16:38;;;;;;;18.80;9.45;;;;;;;;;;5080571;28;20273;-69
2023/03/15 05:19:03;;;;;;;17.98;8.65;;;;;;;;;;5079413;28;20023;-70
2023/03/15 05:21:29;;;;;;;19.73;9.00;;;;;;;;;;5083237;28;20024;-70
2023/03/15 05:23:54;;;;;;;17.70;9.17;;;;;;;;;;5081302;28;20302;-69
2023/03/15 05:26:19;;;;;;;21.30;10.60;;;;;;;;;;5082483;28;20390;-68
2023/03/15 05:28:44;;;;;;;24.23;11.90;;;;;;;;;;5080681;28;20478;-70
2023/03/15 05:31:10;;;;;;;21.07;11.40;;;;;;;;;;5083564;28;20276;-69
2023/03/15 05:33:35;;;;;;;20.05;10.80;;;;;;;;;;5081131;28;20107;-68
2023/03/15 05:36:01;;;;;;;25.97;12.30;;;;;;;;;;5083801;28;20473;-68
2023/03/15 05:38:26;;;;;;;46.40;18.37;;;;;;;;;;5080925;28;20355;-68
2023/03/15 05:40:52;;;;;;;46.53;19.90;;;;;;;;;;5079485;28;20027;-69
2023/03/15 05:43:17;;;;;;;43.47;19.67;;;;;;;;;;5080425;28;21206;-69
2023/03/15 05:45:43;;;;;;;46.30;20.23;;;;;;;;;;5082469;28;20559;-70
2023/03/15 05:48:09;;;;;;;42.75;17.30;;;;;;;;;;5084547;28;20650;-69
2023/03/15 05:50:34;;;;;;;50.63;19.27;;;;;;;;;;5081672;28;20040;-69
2023/03/15 05:52:59;;;;;;;48.83;18.07;;;;;;;;;;5080471;28;20036;-69
2023/03/15 05:55:25;;;;;;;62.83;22.17;;;;;;;;;;5085498;28;20032;-70
2023/03/15 05:57:50;;;;;;;63.50;19.73;;;;;;;;;;5083840;28;20413;-69
2023/03/15 06:00:16;;;;;;;52.35;19.33;;;;;;;;;;5080066;28;20438;-70
2023/03/15 06:02:42;;;;;;;46.42;17.25;;;;;;;;;;5082970;28;20032;-70
2023/03/15 06:05:08;;;;;;;37.05;14.82;;;;;;;;;;5080635;28;20029;-69
2023/03/15 06:07:33;;;;;;;44.50;16.50;;;;;;;;;;5081255;28;20106;-69
2023/03/15 06:09:58;;;;;;;63.60;22.93;;;;;;;;;;5075828;28;20016;-68
2023/03/15 06:12:24;;;;;;;58.23;21.07;;;;;;;;;;5076810;28;20277;-68
2023/03/15 06:14:49;;;;;;;55.27;19.00;;;;;;;;;;5083218;28;20027;-69
2023/03/15 06:17:14;;;;;;;56.33;21.23;;;;;;;;;;5081315;28;20715;-68
2023/03/15 06:19:39;;;;;;;70.60;24.42;;;;;;;;;;5084602;28;20046;-69
2023/03/15 06:22:05;;;;;;;66.27;22.33;;;;;;;;;;5081559;28;20039;-68
2023/03/15 06:24:30;;;;;;;56.08;19.30;;;;;;;;;;5079313;28;20032;-69
2023/03/15 06:26:55;;;;;;;48.47;17.40;;;;;;;;;;5081015;28;20020;-69
2023/03/15 06:29:21;;;;;;;38.83;13.17;;;;;;;;;;5077997;28;20654;-70
2023/03/15 06:31:48;;;;;;;26.20;11.18;;;;;;;;;;5077430;28;20268;-69
2023/03/15 06:34:14;;;;;;;21.25;10.25;;;;;;;;;;5076105;28;20129;-69
2023/03/15 06:36:41;;;;;;;27.90;12.50;;;;;;;;;;5081555;28;20482;-70
2023/03/15 06:39:06;;;;;;;34.92;12.32;;;;;;;;;;5078738;28;20042;-69
2023/03/15 06:41:32;;;;;;;29.63;12.10;;;;;;;;;;5079646;28;20016;-69
2023/03/15 06:43:57;;;;;;;32.53;11.87;;;;;;;;;;5080436;28;20029;-70
2023/03/15 06:46:22;;;;;;;33.17;11.70;;;;;;;;;;5082608;28;20028;-69
2023/03/15 06:48:47;;;;;;;21.30;10.17;;;;;;;;;;5085787;28;20033;-69
2023/03/15 06:51:12;;;;;;;22.87;10.10;;;;;;;;;;5082734;28;20068;-70
2023/03/15 06:53:38;;;;;;;17.53;9.00;;;;;;;;;;5086102;28;20401;-70
2023/03/15 06:56:03;;;;;;;22.47;9.77;;;;;;;;;;5081971;28;20355;-69
2023/03/15 06:58:28;;;;;;;27.55;10.57;;;;;;;;;;5083382;28;20331;-70
2023/03/15 07:00:54;;;;;;;25.67;9.97;;;;;;;;;;5081490;28;20015;-70
2023/03/15 07:03:21;;;;;;;17.63;8.73;;;;;;;;;;5085831;28;20035;-70
2023/03/15 07:05:48;;;;;;;18.63;8.82;;;;;;;;;;5084449;28;20020;-71
2023/03/15 07:08:13;;;;;;;19.83;8.75;;;;;;;;;;5083839;28;20032;-70
2023/03/15 07:10:38;;;;;;;13.80;8.10;;;;;;;;;;5081295;28;20031;-70
2023/03/15 07:13:05;;;;;;;13.90;7.77;;;;;;;;;;5080128;28;20036;-68
2023/03/15 07:15:31;;;;;;;23.20;8.40;;;;;;;;;;5078515;28;20364;-69
2023/03/15 07:17:56;;;;;;;15.65;8.20;;;;;;;;;;5078945;28;20119;-69
2023/03/15 07:20:21;;;;;;;20.63;8.43;;;;;;;;;;5082951;28;20063;-68
2023/03/15 07:22:46;;;;;;;18.33;8.83;;;;;;;;;;5079642;28;20642;-67
2023/03/15 07:25:12;;;;;;;22.97;9.60;;;;;;;;;;5083278;28;20276;-67
2023/03/15 07:27:37;;;;;;;21.43;9.87;;;;;;;;;;5080683;28;20283;-68
2023/03/15 07:30:03;;;;;;;20.50;9.43;;;;;;;;;;5082338;28;20279;-70
2023/03/15 07:32:30;;;;;;;21.60;9.98;;;;;;;;;;5082662;28;20355;-68
2023/03/15 07:34:59;;;;;;;26.40;11.82;;;;;;;;;;5079855;28;20114;-67
2023/03/15 07:37:24;;;;;;;23.27;10.87;;;;;;;;;;5082435;28;20385;-67
2023/03/15 07:39:49;;;;;;;20.63;10.43;;;;;;;;;;5082111;28;20031;-68
2023/03/15 07:42:15;;;;;;;25.80;12.20;;;;;;;;;;5076899;28;20482;-68
2023/03/15 07:44:40;;;;;;;26.63;12.10;;;;;;;;;;5082282;28;20126;-67
2023/03/15 07:47:06;;;;;;;26.00;13.10;;;;;;;;;;5079296;28;20507;-68
2023/03/15 07:49:33;;;;;;;21.08;11.82;;;;;;;;;;5077059;28;20441;-67
2023/03/15 07:51:58;;;;;;;22.65;11.40;;;;;;;;;;5074693;28;20504;-69
2023/03/15 07:54:23;;;;;;;22.57;11.13;;;;;;;;;;5074638;28;20040;-68
2023/03/15 07:56:49;;;;;;;18.03;10.00;;;;;;;;;;5079716;28;20036;-68
2023/03/15 07:59:14;;;;;;;18.37;9.70;;;;;;;;;;5082334;28;20277;-68
2023/03/15 08:01:39;;;;;;;22.58;11.50;;;;;;;;;;5084975;28;20028;-68
2023/03/15 08:04:04;;;;;;;20.57;11.50;;;;;;;;;;5079176;28;21320;-68
2023/03/15 08:06:30;;;;;;;17.40;10.37;;;;;;;;;;5078475;28;20269;-67
2023/03/15 08:08:55;;;;;;;19.63;10.05;;;;;;;;;;5082164;28;20349;-68
2023/03/15 08:11:21;;;;;;;20.77;11.40;;;;;;;;;;5083194;28;20016;-68
2023/03/15 08:13:46;;;;;;;16.43;9.37;;;;;;;;;;5081347;28;20743;-67
2023/03/15 08:16:11;;;;;;;17.45;9.70;;;;;;;;;;5083097;28;20989;-68
2023/03/15 08:18:37;;;;;;;16.77;10.17;;;;;;;;;;5083314;28;20048;-68
2023/03/15 08:21:03;;;;;;;15.13;9.63;;;;;;;;;;5082275;28;20039;-68
2023/03/15 08:23:28;;;;;;;25.85;9.77;;;;;;;;;;5085612;28;20650;-68
2023/03/15 08:25:53;;;;;;;19.90;9.07;;;;;;;;;;5084899;28;20089;-69
2023/03/15 08:28:18;;;;;;;18.77;9.67;;;;;;;;;;5083642;28;20028;-68
2023/03/15 08:30:44;;;;;;;20.40;11.37;;;;;;;;;;5083117;28;20047;-68
2023/03/15 08:33:11;;;;;;;21.30;11.13;;;;;;;;;;5083611;28;20658;-68
2023/03/15 08:35:36;;;;;;;19.38;10.40;;;;;;;;;;5087424;28;20283;-68
2023/03/15 08:38:01;;;;;;;19.60;10.13;;;;;;;;;;5088010;28;20033;-68
2023/03/15 08:40:28;;;;;;;20.57;11.03;;;;;;;;;;5086313;28;20035;-68
2023/03/15 08:42:53;;;;;;;16.25;10.05;;;;;;;;;;5087372;28;20032;-69
2023/03/15 08:45:19;;;;;;;20.25;9.88;;;;;;;;;;5086460;28;20039;-68
2023/03/15 08:47:44;;;;;;;20.15;10.93;;;;;;;;;;5084524;28;20089;-68
2023/03/15 08:50:14;;;;;;;18.33;11.10;;;;;;;;;;5082915;28;20217;-68
2023/03/15 08:52:39;;;;;;;16.50;9.80;;;;;;;;;;5081851;28;20604;-68
2023/03/15 08:55:05;;;;;;;16.92;9.98;;;;;;;;;;5087292;28;20032;-69
2023/03/15 08:57:32;;;;;;;16.48;9.40;;;;;;;;;;5081226;28;20021;-68
2023/03/15 09:00:00;;;;;;;16.95;9.82;;;;;;;;;;5085056;28;20035;-69
2023/03/15 09:02:27;;;;;;;16.00;9.55;;;;;;;;;;5082547;28;20116;-69
2023/03/15 09:04:52;;;;;;;15.25;9.57;;;;;;;;;;5082766;28;20069;-68
2023/03/15 09:07:17;;;;;;;18.92;8.95;;;;;;;;;;5086005;28;20035;-68
2023/03/15 09:09:46;;;;;;;15.35;8.85;;;;;;;;;;5087599;28;20044;-69
2023/03/15 09:12:12;;;;;;;14.13;8.02;;;;;;;;;;5084754;28;20499;-68
2023/03/15 09:14:37;;;;;;;15.65;9.10;;;;;;;;;;5087111;28;20031;-68
2023/03/15 09:17:02;;;;;;;13.47;8.97;;;;;;;;;;5085394;28;20031;-68
2023/03/15 09:19:28;;;;;;;16.90;9.10;;;;;;;;;;5081551;28;20035;-68
2023/03/15 09:21:53;;;;;;;16.27;8.65;;;;;;;;;;5083000;28;20040;-68
2023/03/15 09:24:18;;;;;;;17.53;8.87;;;;;;;;;;5075357;28;20024;-69
2023/03/15 09:26:43;;;;;;;12.75;8.18;;;;;;;;;;5081288;28;20095;-68
2023/03/15 09:29:09;;;;;;;14.95;8.45;;;;;;;11.52;nan;99313.69;5077562;28;20039;-68
2023/03/15 09:31:34;;;;;;;13.40;8.25;;;;;;;11.23;nan;99247.41;5085974;28;20024;-66
2023/03/15 09:34:00;;;;;;;15.20;8.23;;;;;;;11.37;nan;99263.53;5080759;28;20106;-67
2023/03/15 09:36:26;;;;;;;13.18;8.35;;;;;;;11.44;nan;99259.59;5079457;28;20051;-68
2023/03/15 09:38:51;;;;;;;14.02;8.65;;;;;;;11.48;nan;99259.88;5094749;28;20025;-69
2023/03/15 09:41:43;;;;;;;16.38;9.35;;;;;;;11.46;nan;99238.25;5080082;28;20059;-69
2023/03/15 09:44:47;;;;;;;14.60;7.65;;;;;;;11.66;nan;99254.16;5084229;28;20060;-69
2023/03/15 09:47:39;;;;;;;14.43;7.85;;;;;;;11.76;nan;99265.78;5079092;28;20051;-68
2023/03/15 09:50:17;;;;;;;12.27;7.53;;;;;;;11.86;nan;99256.03;5085226;28;20021;-69
2023/03/15 09:53:17;;;;;;;14.45;7.70;;;;;;;11.97;nan;99261.34;5074384;28;20047;-68
2023/03/15 09:55:45;;;;;;;15.73;8.20;;;;;;;12.02;nan;99256.91;5083861;28;20052;-68
2023/03/15 09:58:22;;;;;;;11.57;7.15;;;;;;;11.93;nan;99240.00;5085741;28;20095;-68
2023/03/15 10:00:58;;;;;;;14.02;7.57;;;;;;;12.01;nan;99246.59;5083687;28;20063;-68
2023/03/15 10:03:45;;;;;;;13.07;8.07;;;;;;;11.81;nan;99205.91;5074343;28;20037;-67
2023/03/15 10:06:28;;;;;;;11.10;7.72;;;;;;;12.22;nan;99252.69;5074349;28;20631;-68
2023/03/15 10:08:56;;;;;;;13.90;7.90;;;;;;;12.32;nan;99257.94;5079003;28;20032;-68
2023/03/15 10:11:45;;;;;;;13.05;7.28;;;;;;;12.43;nan;99254.25;5084030;28;20547;-68
2023/03/15 10:14:25;;;;;;;12.25;6.85;;;;;;;12.56;nan;99264.28;5081471;28;20051;-68
2023/03/15 10:16:51;;;;;;;10.95;7.80;;;;;;;12.62;nan;99266.91;5084685;28;20494;-68
2023/03/15 10:19:43;;;;;;;11.68;7.22;;;;;;;12.64;nan;99262.16;5100591;28;20030;-71
2023/03/15 10:22:11;;;;;;;13.55;7.93;;;;;;;12.68;nan;99257.94;5078260;28;20032;-71
2023/03/15 10:24:49;;;;;;;15.27;7.53;;;;;;;12.78;nan;99244.69;5078919;28;20089;-71
2023/03/15 10:27:23;;;;;;;16.13;8.25;;;;;;;12.94;nan;99246.25;5083745;28;20032;-68
2023/03/15 10:29:53;;;;;;;11.57;7.45;;;;;;;12.95;nan;99239.91;5082293;28;20032;-67
2023/03/15 10:32:22;;;;;;;18.65;7.22;;;;;;;13.03;nan;99235.94;5084626;28;20118;-68
2023/03/15 10:34:51;;;;;;;10.77;7.28;;;;;;;13.14;nan;99236.66;5083243;28;20020;-68
2023/03/15 10:37:18;;;;;;;13.05;7.47;;;;;;;13.17;nan;99236.94;5081493;28;20021;-68
2023/03/15 10:39:50;;;;;;;12.25;7.28;;;;;;;13.27;nan;99230.84;5080569;28;20024;-68
2023/03/15 10:42:32;;;;;;;13.05;7.43;;;;;;;13.39;nan;99227.88;5080977;28;20052;-68
2023/03/15 10:45:11;;;;;;;10.15;6.90;;;;;;;13.51;nan;99235.50;5080918;28;20024;-67
2023/03/15 10:47:42;;;;;;;11.50;7.07;;;;;;;13.58;nan;99220.91;5081782;28;20097;-68
2023/03/15 10:50:15;;;;;;;11.23;7.05;;;;;;;13.59;nan;99227.75;5082980;28;20028;-68
2023/03/15 10:52:42;;;;;;;11.32;7.43;;;;;;;13.50;nan;99224.09;5078324;28;20019;-68
2023/03/15 10:55:15;;;;;;;12.77;6.90;;;;;;;13.47;nan;99223.88;5084664;28;20543;-68
2023/03/15 10:57:53;;;;;;;10.95;6.72;;;;;;;13.47;nan;99234.44;5079196;28;20024;-67
2023/03/15 11:00:33;;;;;;;10.23;6.90;;;;;;;13.29;nan;99196.19;5081491;28;20037;-67
2023/03/15 11:03:15;;;;;;;12.60;6.40;;;;;;;13.48;nan;99230.72;5082306;28;20024;-67
2023/03/15 11:05:44;;;;;;;9.63;6.25;;;;;;;13.54;nan;99227.78;5078966;28;20029;-67
2023/03/15 11:08:13;;;;;;;10.77;6.75;;;;;;;13.61;nan;99222.22;5079365;28;20670;-69
2023/03/15 11:10:38;;;;;;;8.80;6.05;;;;;;;13.66;nan;99222.19;5081247;28;20697;-69
2023/03/15 11:13:21;;;;;;;12.50;6.13;;;;;;;13.69;nan;99221.63;5080698;28;20016;-69
2023/03/15 11:16:20;;;;;;;9.82;6.22;;;;;;;13.76;nan;99227.41;5080059;28;20377;-69
2023/03/15 11:18:54;;;;;;;12.20;7.00;;;;;;;13.73;nan;99232.47;5081896;28;20056;-68
2023/03/15 11:21:25;;;;;;;12.32;7.57;;;;;;;13.73;nan;99221.88;5082568;28;20074;-69
2023/03/15 11:23:52;;;;;;;12.98;6.55;;;;;;;13.68;nan;99227.19;5083555;28;20020;-68
2023/03/15 11:26:25;;;;;;;9.80;6.15;;;;;;;13.62;nan;99231.72;5077327;28;20433;-69
2023/03/15 11:29:23;;;;;;;12.60;6.40;;;;;;;13.36;nan;99221.28;5081617;28;20483;-67
2023/03/15 11:31:50;;;;;;;10.75;6.82;;;;;;;13.52;nan;99237.84;5081074;28;20044;-69
2023/03/15 11:34:15;;;;;;;12.32;7.07;;;;;;;13.52;nan;99235.22;5081135;28;20118;-67
2023/03/15 11:36:46;;;;;;;8.80;6.30;;;;;;;13.53;nan;99233.38;5084766;28;20120;-67
2023/03/15 11:39:14;;;;;;;14.75;6.90;;;;;;;13.32;nan;99196.44;5082984;28;20082;-67
2023/03/15 11:41:51;;;;;;;11.50;7.07;;;;;;;13.53;nan;99234.16;5078166;28;20028;-68
2023/03/15 11:44:47;;;;;;;17.13;7.35;;;;;;;13.52;nan;99223.84;5074688;28;20273;-69
2023/03/15 11:47:15;;;;;;;11.93;6.80;;;;;;;13.45;nan;99232.06;5079796;28;20028;-68
2023/03/15 11:49:51;;;;;;;8.95;6.82;;;;;;;13.38;nan;99226.28;5084202;28;20173;-69
2023/03/15 11:52:20;;;;;;;12.65;6.72;;;;;;;13.18;nan;99206.78;5083884;28;20024;-69
2023/03/15 11:54:46;;;;;;;9.98;7.18;;;;;;;13.06;nan;99237.25;5080937;28;20146;-68
2023/03/15 11:57:35;;;;;;;10.60;7.25;;;;;;;12.94;nan;99240.19;5084713;28;20119;-68
2023/03/15 12:00:28;;;;;;;8.93;6.38;;;;;;;12.80;nan;99239.16;5086413;28;20031;-68
2023/03/15 12:02:56;;;;;;;9.95;6.88;;;;;;;12.69;nan;99233.09;5083480;28;20616;-68
2023/03/15 12:05:40;;;;;;;9.43;7.18;;;;;;;;;;5086529;28;20025;-68
2023/03/15 12:08:17;;;;;;;10.77;7.40;;;;;;;;;;5082942;28;20034;-68
2023/03/15 12:10:46;;;;;;;9.63;7.07;;;;;;;;;;5085400;28;20028;-68
2023/03/15 12:13:19;;;;;;;10.93;7.10;;;;;;;;;;5086256;28;20485;-67
2023/03/15 12:15:45;;;;;;;11.57;7.18;;;;;;;;;;5085572;28;20028;-68
2023/03/15 12:18:13;;;;;;;15.02;8.23;;;;;;;;;;5087644;28;20081;-68
2023/03/15 12:20:41;;;;;;;10.77;7.80;;;;;;;;;;5085248;28;20023;-67
2023/03/15 12:23:06;;;;;;;13.68;8.48;;;;;;;;;;5084702;28;20437;-68
2023/03/15 12:25:36;;;;;;;12.17;8.20;;;;;;;;;;5087148;28;20035;-67
2023/03/15 12:28:08;;;;;;;15.82;8.70;;;;;;;;;;5086522;28;20024;-68
2023/03/15 12:30:43;;;;;;;15.90;8.90;;;;;;;;;;5086149;28;20039;-68
2023/03/15 12:33:14;;;;;;;14.23;9.23;;;;;;;;;;5086002;28;20431;-68
2023/03/15 12:35:40;;;;;;;14.07;8.63;;;;;;;11.96;nan;99249.22;5080928;28;20055;-66
2023/03/15 12:38:24;;;;;;;12.52;8.27;;;;;;;;;;5082876;28;20029;-67
2023/03/15 12:40:54;;;;;;;13.00;8.43;;;;;;;;;;5085230;28;20031;-68
2023/03/15 12:43:35;;;;;;;13.85;8.25;;;;;;;;;;5074804;28;20051;-68
2023/03/15 12:46:00;;;;;;;10.85;7.78;;;;;;;;;;5080253;28;20080;-69
2023/03/15 12:48:26;;;;;;;10.90;7.50;;;;;;;;;;5087015;28;20110;-67
2023/03/15 12:50:52;;;;;;;13.82;7.75;;;;;;;;;;5083674;28;20280;-68
2023/03/15 12:53:26;;;;;;;11.52;7.70;;;;;;;;;;5079495;28;20032;-69
2023/03/15 12:55:51;;;;;;;18.63;8.27;;;;;;;;;;5084107;28;20089;-68
2023/03/15 12:58:18;;;;;;;14.07;8.95;;;;;;;;;;5086939;28;20035;-68
2023/03/15 13:00:43;;;;;;;13.35;9.35;;;;;;;;;;5080677;28;20114;-67
2023/03/15 13:03:18;;;;;;;16.05;9.73;;;;;;;;;;5082194;28;20447;-68
2023/03/15 13:05:43;;;;;;;13.63;8.93;;;;;;;;;;5081593;28;20032;-68
2023/03/15 13:08:29;;;;;;;14.57;9.93;;;;;;;;;;5085547;28;20074;-67
2023/03/15 13:11:04;;;;;;;12.32;9.80;;;;;;;;;;5084449;28;20028;-68
2023/03/15 13:13:47;;;;;;;14.13;9.93;;;;;;;;;;5084502;28;20032;-68
2023/03/15 13:16:18;;;;;;;14.15;9.90;;;;;;;10.97;nan;99318.41;5075432;28;20028;-69
2023/03/15 13:19:24;;;;;;;13.98;10.43;;;;;;;10.76;nan;99304.31;5083157;28;20044;-69
2023/03/15 13:22:22;;;;;;;15.25;10.70;;;;;;;10.76;nan;99324.56;5083542;28;20037;-68
2023/03/15 13:25:18;;;;;;;13.25;10.23;;;;;;;10.75;nan;99325.59;5080323;28;20024;-68
2023/03/15 13:27:57;;;;;;;14.15;9.85;;;;;;;10.69;nan;99329.25;5081201;28;20068;-68
2023/03/15 13:30:33;;;;;;;14.88;10.93;;;;;;;10.63;nan;99334.50;5095545;28;20569;-68
2023/03/15 13:33:23;;;;;;;14.65;10.55;;;;;;;10.54;nan;99340.47;5080362;28;20482;-69
2023/03/15 13:35:59;;;;;;;18.95;11.73;;;;;;;10.31;nan;99318.69;5080255;28;20024;-68
2023/03/15 13:38:25;;;;;;;17.23;11.48;;;;;;;;;;5076550;28;20072;-68
2023/03/15 13:40:50;;;;;;;16.92;10.55;;;;;;;;;;5081249;28;20032;-67
2023/03/15 13:43:15;;;;;;;14.50;11.07;;;;;;;;;;5083234;28;20470;-66
2023/03/15 13:45:42;;;;;;;13.77;10.60;;;;;;;;;;5079907;28;20048;-69
2023/03/15 13:48:07;;;;;;;18.98;12.23;;;;;;;;;;5078355;28;20030;-68
2023/03/15 13:50:33;;;;;;;19.02;12.88;;;;;;;;;;5084204;28;20031;-68
2023/03/15 13:52:58;;;;;;;18.60;12.35;;;;;;;;;;5081982;28;20102;-68
2023/03/15 13:55:27;;;;;;;15.03;11.63;;;;;;;;;;5081147;28;20409;-69